createdAt,value
2022-09-04T00:00:19.818Z,12.80
2022-09-04T00:02:51.584Z,12.90
2022-09-04T00:05:35.885Z,13.00
2022-09-04T00:08:12.306Z,13.10
2022-09-04T00:11:05.360Z,13.20
2022-09-04T00:13:44.833Z,13.30
2022-09-04T00:16:20.211Z,13.30
2022-09-04T00:19:10.021Z,13.30
2022-09-04T00:22:00.865Z,13.40
2022-09-04T00:24:59.895Z,13.40
2022-09-04T00:27:44.500Z,13.50
2022-09-04T00:30:16.074Z,13.50
2022-09-04T00:32:58.267Z,13.40
2022-09-04T00:39:36.044Z,13.30
2022-09-04T00:42:29.003Z,13.40
2022-09-04T00:45:08.105Z,13.40
2022-09-04T00:48:19.754Z,13.30
2022-09-04T00:51:23.346Z,13.40
2022-09-04T00:54:29.353Z,13.30
2022-09-04T00:57:14.872Z,13.30
2022-09-04T01:00:04.990Z,13.40
2022-09-04T01:02:49.700Z,13.30
2022-09-04T01:05:36.596Z,13.30
2022-09-04T01:08:26.690Z,13.30
2022-09-04T01:11:11.503Z,13.30
2022-09-04T01:13:59.129Z,13.30
2022-09-04T01:16:46.083Z,13.30
2022-09-04T01:19:30.155Z,13.20
2022-09-04T01:21:58.964Z,13.20
2022-09-04T01:24:57.840Z,13.30
2022-09-04T01:27:52.061Z,13.10
2022-09-04T01:30:21.769Z,13.20
2022-09-04T01:33:06.614Z,13.20
2022-09-04T01:35:59.263Z,13.30
2022-09-04T01:38:39.238Z,13.20
2022-09-04T01:41:16.381Z,13.10
2022-09-04T01:43:44.097Z,13.20
2022-09-04T01:46:39.591Z,13.10
2022-09-04T01:49:22.742Z,13.00
2022-09-04T01:52:08.333Z,13.00
2022-09-04T01:54:57.760Z,13.00
2022-09-04T01:58:16.786Z,12.90
2022-09-04T02:01:00.048Z,12.90
2022-09-04T02:03:47.301Z,13.00
2022-09-04T02:06:54.455Z,12.90
2022-09-04T02:09:34.073Z,13.00
2022-09-04T02:12:51.370Z,13.00
2022-09-04T02:15:36.147Z,12.90
2022-09-04T02:18:31.769Z,13.00
2022-09-04T02:21:12.426Z,12.90
2022-09-04T02:24:25.492Z,12.90
2022-09-04T02:27:12.957Z,13.00
2022-09-04T02:30:12.525Z,13.00
2022-09-04T02:32:49.551Z,13.00
2022-09-04T02:35:42.742Z,13.00
2022-09-04T02:39:01.576Z,13.10
2022-09-04T02:42:21.668Z,13.00
2022-09-04T02:45:19.233Z,13.10
2022-09-04T02:48:09.389Z,13.10
2022-09-04T02:51:14.365Z,13.30
2022-09-04T02:53:44.384Z,13.30
2022-09-04T02:56:30.655Z,13.30
2022-09-04T02:59:35.274Z,13.40
2022-09-04T03:02:11.990Z,13.30
2022-09-04T03:05:00.815Z,13.40
2022-09-04T03:07:49.882Z,13.40
2022-09-04T03:10:35.960Z,13.30
2022-09-04T03:13:10.786Z,13.40
2022-09-04T03:15:46.038Z,13.40
2022-09-04T03:18:29.121Z,13.40
2022-09-04T03:21:12.187Z,13.40
2022-09-04T03:24:03.398Z,13.40
2022-09-04T03:26:47.575Z,13.40
2022-09-04T03:29:22.270Z,13.40
2022-09-04T03:32:06.688Z,13.40
2022-09-04T03:34:57.449Z,13.40
2022-09-04T03:37:54.920Z,13.50
2022-09-04T03:41:06.026Z,13.50
2022-09-04T03:44:02.382Z,13.50
2022-09-04T03:47:25.986Z,13.70
2022-09-04T03:50:29.334Z,13.70
2022-09-04T03:53:28.522Z,13.70
2022-09-04T03:56:43.352Z,13.70
2022-09-04T03:59:27.334Z,13.60
2022-09-04T04:02:35.259Z,13.60
2022-09-04T04:05:26.200Z,13.60
2022-09-04T04:08:33.813Z,13.70
2022-09-04T04:11:56.149Z,13.70
2022-09-04T04:14:23.777Z,13.70
2022-09-04T04:17:15.674Z,13.70
2022-09-04T04:20:10.924Z,13.70
2022-09-04T04:23:30.498Z,13.70
2022-09-04T04:26:30.982Z,13.80
2022-09-04T04:29:07.001Z,13.80
2022-09-04T04:32:15.935Z,13.80
2022-09-04T04:35:05.544Z,13.90
2022-09-04T04:38:02.748Z,14.00
2022-09-04T04:41:05.998Z,14.20
2022-09-04T04:43:58.588Z,14.20
2022-09-04T04:46:46.263Z,14.30
2022-09-04T04:49:19.663Z,14.20
2022-09-04T04:52:20.951Z,14.20
2022-09-04T04:55:24.660Z,14.10
2022-09-04T04:58:08.418Z,14.00
2022-09-04T05:01:16.770Z,13.90
2022-09-04T05:03:58.307Z,13.90
2022-09-04T05:07:00.491Z,13.70
2022-09-04T05:09:57.442Z,13.70
2022-09-04T05:12:36.766Z,13.60
2022-09-04T05:15:10.687Z,13.60
2022-09-04T05:17:51.676Z,13.60
2022-09-04T05:20:43.285Z,13.70
2022-09-04T05:23:30.134Z,14.10
2022-09-04T05:26:07.055Z,14.40
2022-09-04T05:29:00.031Z,14.70
2022-09-04T05:31:27.574Z,14.80
2022-09-04T05:34:13.074Z,15.00
2022-09-04T05:37:30.550Z,15.30
2022-09-04T05:40:12.287Z,15.40
2022-09-04T05:42:59.276Z,15.50
2022-09-04T05:46:07.992Z,15.60
2022-09-04T05:48:59.050Z,15.50
2022-09-04T05:52:01.716Z,15.70
2022-09-04T05:54:58.596Z,16.50
2022-09-04T05:57:49.379Z,17.90
2022-09-04T06:00:23.716Z,18.60
2022-09-04T06:03:22.140Z,18.90
2022-09-04T06:06:14.586Z,19.00
2022-09-04T06:09:13.133Z,18.90
2022-09-04T06:11:57.733Z,19.00
2022-09-04T06:15:06.374Z,19.00
2022-09-04T06:17:55.161Z,19.10
2022-09-04T06:20:53.009Z,20.10
2022-09-04T06:24:00.455Z,22.10
2022-09-04T06:27:03.488Z,24.30
2022-09-04T06:29:58.528Z,25.20
2022-09-04T06:32:56.065Z,25.00
2022-09-04T06:35:53.571Z,24.60
2022-09-04T06:38:42.578Z,25.00
2022-09-04T06:41:33.918Z,26.50
2022-09-04T06:44:27.051Z,28.10
2022-09-04T06:47:31.880Z,29.60
2022-09-04T06:50:14.663Z,30.30
2022-09-04T06:53:03.533Z,29.60
2022-09-04T06:56:15.058Z,28.60
2022-09-04T06:59:06.899Z,27.40
2022-09-04T07:01:52.873Z,27.10
2022-09-04T07:04:39.445Z,26.70
2022-09-04T07:07:24.855Z,26.80
2022-09-04T07:10:16.749Z,28.10
2022-09-04T07:12:45.420Z,29.80
2022-09-04T07:15:35.045Z,31.50
2022-09-04T07:18:30.992Z,32.90
2022-09-04T07:21:42.026Z,32.90
2022-09-04T07:24:28.462Z,31.60
2022-09-04T07:26:58.780Z,29.50
2022-09-04T07:29:49.634Z,27.50
2022-09-04T07:32:23.267Z,25.40
2022-09-04T07:35:27.981Z,23.30
2022-09-04T07:38:22.758Z,21.70
2022-09-04T07:41:05.988Z,20.20
2022-09-04T07:44:12.080Z,19.20
2022-09-04T07:46:50.085Z,18.30
2022-09-04T07:49:46.130Z,17.20
2022-09-04T07:52:45.401Z,16.00
2022-09-04T07:55:41.361Z,15.00
2022-09-04T07:58:11.918Z,14.40
2022-09-04T08:01:20.390Z,14.00
2022-09-04T08:04:06.254Z,13.70
2022-09-04T08:06:50.511Z,13.80
2022-09-04T08:09:39.510Z,13.90
2022-09-04T08:12:20.106Z,14.00
2022-09-04T08:15:06.575Z,14.40
2022-09-04T08:18:05.044Z,14.60
2022-09-04T08:21:21.649Z,15.10
2022-09-04T08:24:15.060Z,17.30
2022-09-04T08:27:24.841Z,20.00
2022-09-04T08:30:04.455Z,23.20
2022-09-04T08:33:12.610Z,25.40
2022-09-04T08:36:01.453Z,27.50
2022-09-04T08:39:10.655Z,29.30
2022-09-04T08:42:20.461Z,31.00
2022-09-04T08:45:26.878Z,32.30
2022-09-04T08:48:32.942Z,32.80
2022-09-04T08:51:04.241Z,33.10
2022-09-04T08:54:29.235Z,33.50
2022-09-04T08:56:58.606Z,33.90
2022-09-04T08:59:33.204Z,34.80
2022-09-04T09:02:10.494Z,35.40
2022-09-04T09:04:42.186Z,35.90
2022-09-04T09:07:44.778Z,36.40
2022-09-04T09:10:40.269Z,36.90
2022-09-04T09:13:44.632Z,37.00
2022-09-04T09:16:31.909Z,37.10
2022-09-04T09:19:37.914Z,37.60
2022-09-04T09:22:14.285Z,38.10
2022-09-04T09:25:14.633Z,38.40
2022-09-04T09:28:07.747Z,38.00
2022-09-04T09:31:13.094Z,37.80
2022-09-04T09:33:56.885Z,37.80
2022-09-04T09:37:03.110Z,36.40
2022-09-04T09:39:58.673Z,35.40
2022-09-04T09:42:54.673Z,34.40
2022-09-04T09:45:49.692Z,33.20
2022-09-04T09:48:44.753Z,31.70
2022-09-04T09:51:35.299Z,30.40
2022-09-04T09:54:41.062Z,29.50
2022-09-04T09:57:39.440Z,28.80
2022-09-04T10:00:13.853Z,27.80
2022-09-04T10:03:03.108Z,26.30
2022-09-04T10:06:14.699Z,24.70
2022-09-04T10:09:14.805Z,23.30
2022-09-04T10:15:14.693Z,22.30
2022-09-04T10:18:18.201Z,22.00
2022-09-04T10:21:23.067Z,22.10
2022-09-04T10:24:33.952Z,22.80
2022-09-04T10:27:08.691Z,23.20
2022-09-04T10:29:45.342Z,23.40
2022-09-04T10:32:34.897Z,23.50
2022-09-04T10:35:23.773Z,23.90
2022-09-04T10:38:12.868Z,24.00
2022-09-04T10:40:49.257Z,24.10
2022-09-04T10:43:39.913Z,23.90
2022-09-04T10:49:17.367Z,23.40
2022-09-04T10:52:27.625Z,23.40
2022-09-04T10:55:20.408Z,23.50
2022-09-04T10:58:18.646Z,23.60
2022-09-04T11:01:04.689Z,23.70
2022-09-04T11:03:56.789Z,23.80
2022-09-04T11:06:50.910Z,23.80
2022-09-04T11:09:35.813Z,23.80
2022-09-04T11:12:03.381Z,23.70
2022-09-04T11:15:09.321Z,23.50
2022-09-04T11:18:04.701Z,23.50
2022-09-04T11:21:12.559Z,23.30
2022-09-04T11:23:49.259Z,23.20
2022-09-04T11:26:29.102Z,23.10
2022-09-04T11:29:30.178Z,23.00
2022-09-04T11:32:22.289Z,23.00
2022-09-04T11:35:08.066Z,23.10
2022-09-04T11:37:51.918Z,22.80
2022-09-04T11:40:39.561Z,22.60
2022-09-04T11:43:56.302Z,22.40
2022-09-04T11:46:42.744Z,22.10
2022-09-04T11:49:55.232Z,21.60
2022-09-04T11:52:52.118Z,21.40
2022-09-04T11:55:43.986Z,20.80
2022-09-04T11:58:37.703Z,20.40
2022-09-04T12:01:31.857Z,20.20
2022-09-04T12:04:20.564Z,20.10
2022-09-04T12:07:13.670Z,19.90
2022-09-04T12:10:16.065Z,19.70
2022-09-04T12:13:15.822Z,19.70
2022-09-04T12:16:01.983Z,20.00
2022-09-04T12:18:52.396Z,20.30
2022-09-04T12:21:53.471Z,20.70
2022-09-04T12:24:39.577Z,21.30
2022-09-04T12:27:54.863Z,21.80
2022-09-04T12:30:50.531Z,22.10
2022-09-04T12:33:49.447Z,22.10
2022-09-04T12:36:27.029Z,21.60
2022-09-04T12:39:14.797Z,21.00
2022-09-04T12:41:58.614Z,20.40
2022-09-04T12:45:01.577Z,20.00
2022-09-04T12:47:41.571Z,19.40
2022-09-04T12:50:21.880Z,19.10
2022-09-04T12:53:19.498Z,18.90
2022-09-04T12:55:54.060Z,18.90
2022-09-04T12:58:50.652Z,19.10
2022-09-04T13:01:37.488Z,19.40
2022-09-04T13:04:27.402Z,19.40
2022-09-04T13:07:22.968Z,19.30
2022-09-04T13:10:33.483Z,19.10
2022-09-04T13:13:40.851Z,18.70
2022-09-04T13:16:55.674Z,18.60
2022-09-04T13:19:44.848Z,18.50
2022-09-04T13:22:34.399Z,18.40
2022-09-04T13:25:53.660Z,18.30
2022-09-04T13:28:45.459Z,18.10
2022-09-04T13:31:19.393Z,17.90
2022-09-04T13:34:19.790Z,17.90
2022-09-04T13:37:09.364Z,18.00
2022-09-04T13:39:45.566Z,18.30
2022-09-04T13:42:34.699Z,18.50
2022-09-04T13:45:24.174Z,18.70
2022-09-04T13:48:37.675Z,18.90
2022-09-04T13:51:27.236Z,19.10
2022-09-04T13:54:00.530Z,19.20
2022-09-04T13:56:43.099Z,19.00
2022-09-04T13:59:19.641Z,18.80
2022-09-04T14:01:52.328Z,18.80
2022-09-04T14:04:28.895Z,18.50
2022-09-04T14:07:08.327Z,18.40
2022-09-04T14:09:48.392Z,18.30
2022-09-04T14:13:00.626Z,18.10
2022-09-04T14:16:01.940Z,18.00
2022-09-04T14:18:56.316Z,18.00
2022-09-04T14:21:33.655Z,17.90
2022-09-04T14:24:28.057Z,18.00
2022-09-04T14:27:21.052Z,18.00
2022-09-04T14:29:57.911Z,18.10
2022-09-04T14:32:46.858Z,18.10
2022-09-04T14:35:35.982Z,18.20
2022-09-04T14:38:35.812Z,18.40
2022-09-04T14:41:14.687Z,18.60
2022-09-04T14:44:04.441Z,18.70
2022-09-04T14:46:51.710Z,18.80
2022-09-04T14:49:23.628Z,18.80
2022-09-04T14:51:57.444Z,18.70
2022-09-04T14:54:33.343Z,18.70
2022-09-04T14:57:27.731Z,18.40
2022-09-04T15:00:18.423Z,18.20
2022-09-04T15:03:08.866Z,17.80
2022-09-04T15:05:57.669Z,17.50
2022-09-04T15:08:39.899Z,17.40
2022-09-04T15:11:34.951Z,17.20
2022-09-04T15:14:28.676Z,17.30
2022-09-04T15:17:04.138Z,17.20
2022-09-04T15:19:56.537Z,17.20
2022-09-04T15:22:39.607Z,17.20
2022-09-04T15:25:54.698Z,17.20
2022-09-04T15:28:31.370Z,17.20
2022-09-04T15:31:38.828Z,17.20
2022-09-04T15:34:35.242Z,17.10
2022-09-04T15:37:18.979Z,17.00
2022-09-04T15:40:13.478Z,17.00
2022-09-04T15:42:55.366Z,17.00
2022-09-04T15:45:42.063Z,16.90
2022-09-04T15:48:28.384Z,16.80
2022-09-04T15:51:27.361Z,16.80
2022-09-04T15:54:43.338Z,16.70
2022-09-04T15:57:33.298Z,16.70
2022-09-04T16:00:11.323Z,16.60
2022-09-04T16:03:07.204Z,16.50
2022-09-04T16:05:52.130Z,16.50
2022-09-04T16:08:36.475Z,16.40
2022-09-04T16:11:06.783Z,16.30
2022-09-04T16:13:54.046Z,16.10
2022-09-04T16:16:41.109Z,16.00
2022-09-04T16:19:21.302Z,15.90
2022-09-04T16:22:00.313Z,15.80
2022-09-04T16:25:08.166Z,15.80
2022-09-04T16:27:53.549Z,15.80
2022-09-04T16:30:33.446Z,15.80
2022-09-04T16:33:02.629Z,15.70
2022-09-04T16:35:41.681Z,15.60
2022-09-04T16:38:24.434Z,15.50
2022-09-04T16:41:25.714Z,15.40
2022-09-04T16:44:25.785Z,15.30
2022-09-04T16:47:02.937Z,15.30
2022-09-04T16:49:30.876Z,15.20
2022-09-04T16:52:27.130Z,15.10
2022-09-04T16:55:14.044Z,15.00
2022-09-04T16:58:09.066Z,15.00
2022-09-04T17:01:14.202Z,14.90
2022-09-04T17:04:13.174Z,14.90
2022-09-04T17:07:00.710Z,14.80
2022-09-04T17:09:58.163Z,14.70
2022-09-04T17:12:38.000Z,14.70
2022-09-04T17:15:35.814Z,14.60
2022-09-04T17:18:20.817Z,14.60
2022-09-04T17:27:41.893Z,14.50
2022-09-04T17:28:58.467Z,14.50
2022-09-04T17:29:15.233Z,14.40
2022-09-04T17:30:29.135Z,14.40
2022-09-04T17:40:06.246Z,14.40
2022-09-04T17:40:36.254Z,14.30
2022-09-04T17:40:49.543Z,14.20
2022-09-04T17:43:35.583Z,14.20
2022-09-04T17:46:16.098Z,14.20
2022-09-04T17:48:52.559Z,14.10
2022-09-04T17:51:28.306Z,14.00
2022-09-04T17:54:03.190Z,14.00
2022-09-04T17:56:58.235Z,14.00
2022-09-04T17:59:45.823Z,14.00
2022-09-04T18:02:41.018Z,13.90
2022-09-04T18:05:26.584Z,13.80
2022-09-04T18:08:23.215Z,13.80
2022-09-04T18:14:03.809Z,13.70
2022-09-04T18:17:12.053Z,13.70
2022-09-04T18:19:53.595Z,13.70
2022-09-04T18:22:33.536Z,13.70
2022-09-04T18:25:25.741Z,13.60
2022-09-04T18:28:28.882Z,13.60
2022-09-04T18:37:11.211Z,13.60
2022-09-04T18:37:15.729Z,13.60
2022-09-04T18:37:24.929Z,13.60
2022-09-04T18:40:13.213Z,13.50
2022-09-04T18:50:25.320Z,13.60
2022-09-04T18:50:39.755Z,13.50
2022-09-04T18:51:03.324Z,13.60
2022-09-04T18:51:31.097Z,13.60
2022-09-04T18:54:21.004Z,13.70
2022-09-04T18:57:06.577Z,13.80
2022-09-04T18:59:45.308Z,13.90
2022-09-04T19:02:33.625Z,13.90
2022-09-04T19:05:07.539Z,14.10
2022-09-04T19:08:01.226Z,14.00
2022-09-04T19:10:56.145Z,14.00
2022-09-04T19:13:55.688Z,14.00
2022-09-04T19:17:07.569Z,13.90
2022-09-04T19:19:58.020Z,14.10
2022-09-04T19:22:43.018Z,14.10
2022-09-04T19:25:28.526Z,14.00
2022-09-04T19:28:14.196Z,14.10
2022-09-04T19:30:55.665Z,14.20
2022-09-04T19:33:40.010Z,14.00
2022-09-04T19:36:20.812Z,14.00
2022-09-04T19:44:25.589Z,13.90
2022-09-04T19:45:59.348Z,13.80
2022-09-04T19:46:13.430Z,13.70
2022-09-04T19:48:20.969Z,13.60
2022-09-04T19:53:24.471Z,13.50
2022-09-04T19:54:11.414Z,13.30
2022-09-04T19:57:32.350Z,13.30
2022-09-04T20:00:43.465Z,13.30
2022-09-04T20:03:29.524Z,13.10
2022-09-04T20:06:07.727Z,13.00
2022-09-04T20:09:14.887Z,13.00
2022-09-04T20:11:48.072Z,12.90
2022-09-04T20:14:55.311Z,12.90
2022-09-04T20:18:00.164Z,12.80
2022-09-04T20:20:52.095Z,12.70
2022-09-04T20:23:40.757Z,12.70
2022-09-04T20:26:22.191Z,12.70
2022-09-04T20:28:49.671Z,12.80
2022-09-04T20:31:45.524Z,12.70
2022-09-04T20:34:22.615Z,12.70
2022-09-04T20:37:02.799Z,12.70
2022-09-04T20:39:44.116Z,12.60
2022-09-04T20:42:38.015Z,12.60
2022-09-04T20:48:15.330Z,12.50
2022-09-04T20:53:06.019Z,12.30
2022-09-04T20:54:49.107Z,12.30
2022-09-04T21:03:08.849Z,12.20
2022-09-04T21:03:13.457Z,12.20
2022-09-04T21:03:57.372Z,12.20
2022-09-04T21:06:52.945Z,12.20
2022-09-04T21:09:54.732Z,12.30
2022-09-04T21:15:33.021Z,11.90
2022-09-04T21:18:09.826Z,12.00
2022-09-04T21:20:55.103Z,11.90
2022-09-04T21:24:10.237Z,11.80
2022-09-04T21:27:13.070Z,11.70
2022-09-04T21:29:59.473Z,11.70
2022-09-04T21:32:38.582Z,11.80
2022-09-04T21:35:41.270Z,11.70
2022-09-04T21:38:09.413Z,11.60
2022-09-04T21:40:52.511Z,11.60
2022-09-04T21:43:35.923Z,11.50
2022-09-04T21:46:13.035Z,11.50
2022-09-04T21:49:07.898Z,11.40
2022-09-04T21:52:00.212Z,11.50
2022-09-04T21:57:19.363Z,11.50
2022-09-04T22:02:36.081Z,11.30
2022-09-04T22:02:37.961Z,11.30
2022-09-04T22:04:18.740Z,11.40
2022-09-04T22:10:10.183Z,11.30
2022-09-04T22:13:39.073Z,11.50
2022-09-04T22:13:47.982Z,11.30
2022-09-04T22:17:20.163Z,11.30
2022-09-04T22:19:59.077Z,11.30
2022-09-04T22:22:35.708Z,11.10
2022-09-04T22:25:36.649Z,11.20
2022-09-04T22:28:44.919Z,11.10
2022-09-04T22:31:22.848Z,11.00
2022-09-04T22:34:16.923Z,11.00
2022-09-04T22:37:01.061Z,11.00
2022-09-04T22:39:39.165Z,10.90
2022-09-04T22:42:25.917Z,10.80
2022-09-04T22:45:11.788Z,10.80
2022-09-04T22:48:29.518Z,10.70
2022-09-04T22:51:34.464Z,10.70
2022-09-04T22:54:27.304Z,10.70
2022-09-04T22:57:18.978Z,10.60
2022-09-04T23:00:20.924Z,10.50
2022-09-04T23:03:29.798Z,10.60
2022-09-04T23:08:14.991Z,10.50
2022-09-04T23:13:48.455Z,10.50
2022-09-04T23:13:57.403Z,10.40
2022-09-04T23:16:00.685Z,10.40
2022-09-04T23:24:54.842Z,10.40
2022-09-04T23:26:42.222Z,10.40
2022-09-04T23:26:53.342Z,10.40
2022-09-04T23:28:27.099Z,10.40
2022-09-04T23:31:19.990Z,10.40
2022-09-04T23:34:19.446Z,10.40
2022-09-04T23:37:09.744Z,10.40
2022-09-04T23:39:55.883Z,10.40
2022-09-04T23:43:01.131Z,10.50
2022-09-04T23:45:48.794Z,10.50
2022-09-04T23:48:53.797Z,10.60
2022-09-04T23:52:05.034Z,10.50
2022-09-04T23:54:51.094Z,10.50
2022-09-04T23:57:36.060Z,10.50
